Huvudsida
METAR-TAF:

METAR-TAF

Flygplatser :

Mezjdunarodnyj aeroport "Issyk-Kul"

Tamchy, Kirgizistan

latitud: 42-35-17N, longitud: 076-42-47E, höjd: 1653 m

Aktuellt väderrapport

Denna rapport gjordes för 1 timme och 4 minuter sedan, klockan 08:00 UTC
Vind 6 kt från syd/sydost, varierande mellan ost och syd
Temperatur 11°C
Fuktighet 50%
Tryck 1027 hPa
Sikt 10 km eller mer
Få moln på en höjd av 3000 ft

METAR: UCFL 210800Z 15003MPS 100V180 9999 FEW030 11/01 Q1027 R07/CLRD70

Tid: 15:04 (09:04 UTC)

Väderprognos

Denna rapport gjordes för 1 timme och 25 minuter sedan, klockan 07:39 UTC
Prognos gäller från 21 kl. 09 UTC till 21 kl. 18 UTC
Vind 6 kt från syd/sydost i byarna ända upp till 16 kt
Sikt 10 km eller mer
Få moln på en höjd av 3000 ft, Cumulonimbus.
Spridda moln på en höjd av 10000 ft

TAF: UCFL 210739Z 2109/2118 15003G08MPS 9999 FEW030CB SCT100

Aktuella väderrapporter och prognoser från 4000 flygplatser (METAR- och TAF-rapporter).

De tillgängliga stationerna syns som gula och röda prickar på kartan.

För musen över prickarna för att se namnen på stationerna.

Klicka sedan för att få väderrapporter och prognoser.

För att ändra kartan: Klicka på de gröna knapparna med ett svart kors på för att zooma in; den gröna knappen med ett streck på för att zooma ut; eller på de gröna pilarna för angränsande kartor.


METAR-TAF: